»·PEaware :: N510CJ KSJC-KFOT

N510CJ :: KSJC-KFOT

FLIGHT INFORMATION

Flight Status: Arrived
Operator: Privately registered:
United States
More flights under this callsign
Pilot: John G. (2195)
Aircraft: CESSNA 510 CITATION MUSTANG
(C510)
More flights by this aircraft type
Origin: KSJC Mineta San Jose Intl
United States
Destination: KFOT Rohnerville
United States
More flights between these airports :: More routes between these airports
Route: +LOUPE4 BMRNG ENI
File this flight plan on PilotEdge
Remarks:
Altitude:
(Current/Filed)
28,000ft
Speed:
(Current/Filed)
340kts
Departed: 08-Dec-17 12:28 PM
Arrived: 08-Dec-17 01:27 PM
Distance/Time
Traveled:
217nm/0:59
Distance/Time
To Go:
Arrived

Flight Plot

Page will automatically refresh every two minutes.

Flight plan parsing failed; only flown route is shown


Map Options




Map Legend


Flown Route
Filed Route
Departure Airport
Arrival Airport
Navaid (VOR, NDB)
Fix

Horizontal Profiles

Position Reports

Time Latitude Longitude Heading Altitude Ground
Speed
08-Dec-17 12:10 37.357822 -121.929660 132 64ft 0kts
08-Dec-17 12:11 37.357822 -121.929660 132 64ft 0kts
08-Dec-17 12:12 37.357820 -121.929658 132 64ft 0kts
08-Dec-17 12:13 37.357819 -121.929656 132 64ft 0kts
08-Dec-17 12:14 37.357818 -121.929655 132 64ft 0kts
08-Dec-17 12:15 37.357818 -121.929655 132 64ft 0kts
08-Dec-17 12:16 37.357818 -121.929655 132 64ft 0kts
08-Dec-17 12:17 37.357818 -121.929654 132 64ft 0kts
08-Dec-17 12:18 37.357817 -121.929654 132 64ft 0kts
08-Dec-17 12:19 37.357817 -121.929654 132 64ft 0kts
08-Dec-17 12:20 37.357817 -121.929653 132 64ft 0kts
08-Dec-17 12:21 37.357817 -121.929653 132 64ft 0kts
08-Dec-17 12:22 37.357816 -121.929652 132 64ft 0kts
08-Dec-17 12:23 37.357816 -121.929652 132 64ft 0kts
08-Dec-17 12:24 37.357816 -121.929652 132 64ft 0kts
08-Dec-17 12:25 37.357815 -121.929651 132 64ft 0kts
08-Dec-17 12:26 37.357815 -121.929651 132 64ft 0kts
08-Dec-17 12:27 37.357815 -121.929651 132 64ft 0kts
08-Dec-17 12:28 37.357287 -121.928278 123 64ft 14kts
08-Dec-17 12:30 37.354606 -121.925276 139 64ft 12kts
08-Dec-17 12:31 37.353250 -121.922220 140 64ft 23kts
08-Dec-17 12:32 37.352279 -121.919987 66 64ft 0kts
08-Dec-17 12:33 37.353151 -121.919475 329 64ft 11kts
08-Dec-17 12:34 37.367302 -121.933539 323 670ft 156kts
08-Dec-17 12:35 37.404837 -121.968735 325 5136ft 152kts
08-Dec-17 12:36 37.458179 -121.941761 62 6052ft 267kts
08-Dec-17 12:37 37.437613 -121.856517 131 7893ft 276kts
08-Dec-17 12:38 37.383663 -121.791154 136 10794ft 246kts
08-Dec-17 12:39 37.337254 -121.763542 219 15051ft 152kts
08-Dec-17 12:40 37.337818 -121.808437 283 16993ft 159kts
08-Dec-17 12:41 37.368408 -121.859420 346 18238ft 227kts
08-Dec-17 12:42 37.411256 -121.807493 82 19890ft 257kts
08-Dec-17 12:43 37.466624 -121.764377 352 21564ft 273kts
08-Dec-17 12:44 37.542874 -121.798091 315 21978ft 319kts
08-Dec-17 12:45 37.589539 -121.896295 296 23064ft 316kts
08-Dec-17 12:46 37.634819 -121.985250 319 25051ft 293kts
08-Dec-17 12:47 37.699238 -122.042301 325 27043ft 270kts
08-Dec-17 12:48 37.761015 -122.094964 324 28084ft 278kts
08-Dec-17 12:49 37.826196 -122.152486 324 28506ft 297kts
08-Dec-17 12:50 37.896421 -122.215254 324 28509ft 317kts
08-Dec-17 12:51 37.966670 -122.278319 324 29582ft 294kts
08-Dec-17 12:52 38.030127 -122.335369 323 30892ft 271kts
08-Dec-17 12:53 38.091672 -122.390889 322 31789ft 269kts
08-Dec-17 12:54 38.152986 -122.446364 322 32508ft 279kts
08-Dec-17 12:55 38.219535 -122.506823 322 32514ft 305kts
08-Dec-17 12:56 38.290426 -122.571287 322 32513ft 320kts
08-Dec-17 12:57 38.363776 -122.638139 322 32510ft 326kts
08-Dec-17 12:57 38.425899 -122.694896 322 32502ft 331kts
08-Dec-17 12:59 38.513634 -122.775438 321 32494ft 334kts
08-Dec-17 13:00 38.589072 -122.844985 321 32493ft 335kts
08-Dec-17 13:01 38.664939 -122.914918 321 32496ft 335kts
08-Dec-17 13:02 38.740672 -122.984723 321 32502ft 335kts
08-Dec-17 13:02 38.804308 -123.042842 321 32508ft 336kts
08-Dec-17 13:04 38.892902 -123.124532 321 32516ft 336kts
08-Dec-17 13:05 38.968730 -123.195019 321 32520ft 337kts
08-Dec-17 13:05 39.032280 -123.254309 321 32303ft 338kts
08-Dec-17 13:06 39.114485 -123.313130 334 30793ft 341kts
08-Dec-17 13:07 39.202410 -123.359970 335 29173ft 342kts
08-Dec-17 13:09 39.304514 -123.416184 334 27309ft 342kts
08-Dec-17 13:09 39.377180 -123.457026 334 25977ft 341kts
08-Dec-17 13:10 39.464028 -123.506088 334 24358ft 338kts
08-Dec-17 13:11 39.549576 -123.554507 334 22640ft 333kts
08-Dec-17 13:12 39.633442 -123.602372 334 20842ft 327kts
08-Dec-17 13:13 39.715675 -123.649824 333 18945ft 319kts
08-Dec-17 13:14 39.795921 -123.696633 333 17048ft 313kts
08-Dec-17 13:15 39.874455 -123.743032 333 15145ft 304kts
08-Dec-17 13:16 39.950532 -123.788291 333 13247ft 297kts
08-Dec-17 13:17 40.024833 -123.832625 333 11349ft 291kts
08-Dec-17 13:18 40.098124 -123.876296 335 9445ft 287kts
08-Dec-17 13:19 40.169832 -123.909447 332 7558ft 247kts
08-Dec-17 13:20 40.227981 -123.945877 332 5660ft 222kts
08-Dec-17 13:21 40.281890 -123.977624 335 4543ft 200kts
08-Dec-17 13:22 40.332922 -124.006570 335 4538ft 195kts
08-Dec-17 13:23 40.378014 -124.031698 341 4500ft 161kts
08-Dec-17 13:24 40.422754 -124.047924 339 3941ft 167kts
08-Dec-17 13:25 40.462723 -124.081339 312 1917ft 175kts
08-Dec-17 13:26 40.498457 -124.104174 355 1057ft 142kts
08-Dec-17 13:27 40.533140 -124.115655 338 787ft 135kts
08-Dec-17 13:28 40.558975 -124.137289 317 587ft 97kts
08-Dec-17 13:29 40.583203 -124.162709 321 1218ft 124kts
08-Dec-17 13:30 40.572766 -124.167906 113 979ft 116kts
08-Dec-17 13:31 40.555802 -124.135861 129 359ft 77kts
08-Dec-17 13:32 40.550976 -124.127560 119 357ft 15kts
08-Dec-17 13:33 40.552624 -124.129160 307 357ft 15kts
08-Dec-17 13:34 40.554496 -124.131905 347 357ft 4kts
08-Dec-17 13:35 40.554757 -124.131780 99 357ft 0kts

Navigation Log

Ident Type
Flight plan parsing failed, navigation log unavailable